KSEE/SEE METAR and TAF weather

Enter ICAO airport designator
Station Type Date Time Source
KSEE METAR 2023/02/05 23:47 UTC NOAA

KSEE 052347Z 28010KT 10SM FEW035 17/08 A3017


Station Type Date Time Source
KSEE Decoded METAR 2023/02/05 23:47 UTC NOAA

San Diego/El Cajon, Gillespie Field Airport, CA, United States (KSEE) 32-49-34N 116-58-20W
Feb 05, 2023 - 06:47 PM EST / 2023.02.05 2347 UTC
Wind: from the W (280 degrees) at 12 MPH (10 KT):0
Visibility: 10 mile(s):0
Sky conditions: mostly clear
Temperature: 62 F (17 C)
Dew Point: 46 F (8 C)
Relative Humidity: 55%
Pressure (altimeter): 30.17 in. Hg (1021 hPa)
ob: KSEE 052347Z 28010KT 10SM FEW035 17/08 A3017
cycle: 0

Station Type Date Time Source
KSEE TAF UTC NOAA

Error!

Example: see airport list